createdAt,value
2022-12-17T00:01:37.085Z,101131.41
2022-12-17T00:04:22.000Z,101131.66
2022-12-17T00:07:06.932Z,101127.50
2022-12-17T00:09:52.166Z,101131.97
2022-12-17T00:12:37.107Z,101133.91
2022-12-17T00:15:21.895Z,101138.38
2022-12-17T00:18:07.114Z,101136.84
2022-12-17T00:20:51.998Z,101135.16
2022-12-17T00:23:37.500Z,101139.75
2022-12-17T00:26:22.934Z,101141.56
2022-12-17T00:29:07.744Z,101152.28
2022-12-17T00:31:52.856Z,101149.78
2022-12-17T00:34:41.561Z,101154.25
2022-12-17T00:37:26.438Z,101162.16
2022-12-17T00:40:11.698Z,101161.31
2022-12-17T00:42:56.485Z,101163.13
2022-12-17T00:45:41.647Z,101164.81
2022-12-17T00:48:26.618Z,101168.41
2022-12-17T00:51:13.735Z,101167.56
2022-12-17T00:53:59.027Z,101167.56
2022-12-17T00:56:43.959Z,101169.25
2022-12-17T00:59:29.262Z,101163.13
2022-12-17T01:02:14.292Z,101163.13
2022-12-17T01:04:59.500Z,101170.09
2022-12-17T01:07:44.523Z,101167.56
2022-12-17T01:10:29.446Z,101173.72
2022-12-17T01:13:14.700Z,101170.34
2022-12-17T01:15:59.596Z,101175.63
2022-12-17T01:18:44.619Z,101182.88
2022-12-17T01:21:29.608Z,101181.22
2022-12-17T01:24:14.491Z,101188.44
2022-12-17T01:26:59.619Z,101193.72
2022-12-17T01:29:44.448Z,101190.41
2022-12-17T01:32:29.401Z,101196.78
2022-12-17T01:35:14.511Z,101190.69
2022-12-17T01:37:59.505Z,101204.84
2022-12-17T01:40:44.591Z,101212.94
2022-12-17T01:43:32.675Z,101213.03
2022-12-17T01:46:17.952Z,101215.81
2022-12-17T01:49:05.451Z,101212.50
2022-12-17T01:51:50.973Z,101210.97
2022-12-17T01:54:37.068Z,101222.50
2022-12-17T01:57:22.763Z,101227.34
2022-12-17T02:00:11.196Z,101223.31
2022-12-17T02:02:56.444Z,101219.25
2022-12-17T02:05:49.841Z,101218.16
2022-12-17T02:08:44.244Z,101228.28
2022-12-17T02:11:47.551Z,101231.44
2022-12-17T02:14:55.702Z,101231.97
2022-12-17T02:18:03.849Z,101228.91
2022-12-17T02:20:50.032Z,101231.94
2022-12-17T02:23:54.094Z,101228.03
2022-12-17T02:27:02.449Z,101237.31
2022-12-17T02:29:49.705Z,101234.47
2022-12-17T02:32:36.509Z,101227.94
2022-12-17T02:35:23.451Z,101235.41
2022-12-17T02:38:08.444Z,101236.63
2022-12-17T02:40:54.745Z,101237.84
2022-12-17T02:43:43.430Z,101245.47
2022-12-17T02:46:28.344Z,101240.59
2022-12-17T02:49:13.272Z,101244.41
2022-12-17T02:51:59.165Z,101249.28
2022-12-17T02:54:48.189Z,101254.91
2022-12-17T02:57:33.365Z,101253.50
2022-12-17T03:00:18.273Z,101262.63
2022-12-17T03:03:03.398Z,101251.50
2022-12-17T03:05:48.634Z,101259.69
2022-12-17T03:08:33.518Z,101265.22
2022-12-17T03:11:18.698Z,101269.75
2022-12-17T03:14:03.612Z,101266.44
2022-12-17T03:16:48.844Z,101264.88
2022-12-17T03:19:34.165Z,101272.19
2022-12-17T03:22:19.016Z,101274.13
2022-12-17T03:25:04.068Z,101284.91
2022-12-17T03:27:48.935Z,101284.91
2022-12-17T03:30:36.339Z,101288.78
2022-12-17T03:33:22.713Z,101285.31
2022-12-17T03:36:11.210Z,101292.38
2022-12-17T03:38:56.427Z,101298.72
2022-12-17T03:41:41.252Z,101303.16
2022-12-17T03:44:25.999Z,101299.81
2022-12-17T03:47:11.301Z,101300.75
2022-12-17T03:49:56.299Z,101303.53
2022-12-17T03:52:41.258Z,101294.78
2022-12-17T03:55:26.252Z,101298.38
2022-12-17T03:58:11.591Z,101302.84
2022-12-17T04:00:56.547Z,101305.34
2022-12-17T04:03:41.471Z,101306.16
2022-12-17T04:06:26.663Z,101307.03
2022-12-17T04:09:11.491Z,101315.63
2022-12-17T04:11:56.747Z,101305.06
2022-12-17T04:14:41.565Z,101301.75
2022-12-17T04:17:26.893Z,101308.66
2022-12-17T04:20:11.820Z,101302.44
2022-12-17T04:22:56.820Z,101302.56
2022-12-17T04:25:42.087Z,101305.06
2022-12-17T04:28:26.891Z,101300.06
2022-12-17T04:31:12.165Z,101314.19
2022-12-17T04:33:57.103Z,101315.28
2022-12-17T04:36:42.075Z,101319.00
2022-12-17T04:39:27.271Z,101321.88
2022-12-17T04:42:12.207Z,101329.06
2022-12-17T04:44:57.352Z,101331.97
2022-12-17T04:47:42.098Z,101337.34
2022-12-17T04:50:37.597Z,101334.84
2022-12-17T04:53:23.449Z,101338.44
2022-12-17T04:56:08.400Z,101340.13
2022-12-17T04:58:56.592Z,101340.13
2022-12-17T05:01:41.686Z,101333.16
2022-12-17T05:04:26.910Z,101338.56
2022-12-17T05:07:11.751Z,101336.06
2022-12-17T05:09:57.027Z,101340.34
2022-12-17T05:12:42.007Z,101338.69
2022-12-17T05:15:26.940Z,101345.88
2022-12-17T05:18:12.008Z,101344.19
2022-12-17T05:20:56.864Z,101354.72
2022-12-17T05:23:41.724Z,101343.50
2022-12-17T05:26:36.914Z,101353.06
2022-12-17T05:29:22.305Z,101349.72
2022-12-17T05:32:08.107Z,101357.75
2022-12-17T05:34:52.899Z,101352.59
2022-12-17T05:37:39.264Z,101355.44
2022-12-17T05:40:24.468Z,101357.38
2022-12-17T05:43:16.484Z,101357.63
2022-12-17T05:46:01.866Z,101362.16
2022-12-17T05:48:47.141Z,101365.88
2022-12-17T05:51:37.039Z,101366.00
2022-12-17T05:54:23.641Z,101371.41
2022-12-17T05:57:08.485Z,101368.91
2022-12-17T05:59:53.682Z,101367.22
2022-12-17T06:02:38.616Z,101369.09
2022-12-17T06:05:24.149Z,101380.72
2022-12-17T06:08:09.165Z,101382.53
2022-12-17T06:10:54.087Z,101386.09
2022-12-17T06:13:39.105Z,101387.06
2022-12-17T06:16:24.024Z,101379.41
2022-12-17T06:19:09.272Z,101383.00
2022-12-17T06:21:54.342Z,101392.81
2022-12-17T06:24:42.727Z,101395.66
2022-12-17T06:27:35.239Z,101400.00
2022-12-17T06:30:20.053Z,101401.44
2022-12-17T06:33:05.260Z,101403.81
2022-12-17T06:35:50.127Z,101400.78
2022-12-17T06:38:35.125Z,101406.41
2022-12-17T06:41:20.877Z,101403.94
2022-12-17T06:44:06.027Z,101403.91
2022-12-17T06:46:51.343Z,101401.63
2022-12-17T06:49:36.501Z,101410.00
2022-12-17T06:52:21.545Z,101415.69
2022-12-17T06:55:06.750Z,101419.84
2022-12-17T06:57:51.723Z,101421.81
2022-12-17T07:00:36.963Z,101427.47
2022-12-17T07:03:22.027Z,101427.56
2022-12-17T07:06:07.115Z,101437.66
2022-12-17T07:08:51.891Z,101445.94
2022-12-17T07:11:37.268Z,101449.75
2022-12-17T07:14:22.505Z,101449.47
2022-12-17T07:17:07.815Z,101455.59
2022-12-17T07:19:52.719Z,101467.63
2022-12-17T07:22:37.563Z,101467.63
2022-12-17T07:25:22.792Z,101470.69
2022-12-17T07:28:14.361Z,101469.31
2022-12-17T07:30:59.512Z,101476.28
2022-12-17T07:33:45.008Z,101476.25
2022-12-17T07:36:29.980Z,101481.78
2022-12-17T07:39:14.950Z,101487.28
2022-12-17T07:41:59.779Z,101483.88
2022-12-17T07:44:46.413Z,101494.66
2022-12-17T07:47:31.360Z,101505.25
2022-12-17T07:50:16.164Z,101505.97
2022-12-17T07:53:01.500Z,101511.78
2022-12-17T07:55:46.273Z,101506.00
2022-12-17T07:58:31.335Z,101510.47
2022-12-17T08:01:19.646Z,101515.56
2022-12-17T08:04:04.901Z,101522.31
2022-12-17T08:06:50.119Z,101524.50
2022-12-17T08:09:35.090Z,101523.06
2022-12-17T08:12:20.175Z,101527.75
2022-12-17T08:15:05.306Z,101529.69
2022-12-17T08:17:50.101Z,101528.84
2022-12-17T08:20:35.222Z,101531.34
2022-12-17T08:23:21.278Z,101534.56
2022-12-17T08:26:06.239Z,101548.94
2022-12-17T08:28:51.556Z,101547.38
2022-12-17T08:31:36.793Z,101541.22
2022-12-17T08:34:21.986Z,101540.47
2022-12-17T08:37:06.813Z,101550.00
2022-12-17T08:39:51.602Z,101561.50
2022-12-17T08:42:36.760Z,101564.94
2022-12-17T08:45:21.660Z,101562.94
2022-12-17T08:48:06.673Z,101552.19
2022-12-17T08:50:51.705Z,101550.88
2022-12-17T08:53:37.113Z,101562.38
2022-12-17T08:56:22.545Z,101562.63
2022-12-17T08:59:07.432Z,101561.72
2022-12-17T09:01:52.823Z,101562.63
2022-12-17T09:04:37.894Z,101558.25
2022-12-17T09:07:22.677Z,101552.13
2022-12-17T09:10:07.876Z,101551.00
2022-12-17T09:12:52.773Z,101552.72
2022-12-17T09:15:37.850Z,101556.03
2022-12-17T09:18:22.962Z,101565.66
2022-12-17T09:21:14.406Z,101563.81
2022-12-17T09:23:59.660Z,101558.16
2022-12-17T09:26:44.555Z,101567.53
2022-12-17T09:29:29.705Z,101570.81
2022-12-17T09:32:14.657Z,101567.06
2022-12-17T09:34:59.490Z,101569.47
2022-12-17T09:37:44.594Z,101565.97
2022-12-17T09:40:34.685Z,101571.31
2022-12-17T09:43:25.378Z,101573.44
2022-12-17T09:46:32.074Z,101573.53
2022-12-17T09:49:21.899Z,101578.22
2022-12-17T09:52:07.114Z,101574.25
2022-12-17T09:55:00.954Z,101577.31
2022-12-17T09:57:51.793Z,101582.84
2022-12-17T10:00:41.946Z,101576.38
2022-12-17T10:03:33.026Z,101586.75
2022-12-17T10:06:22.812Z,101586.41
2022-12-17T10:09:12.097Z,101586.25
2022-12-17T10:11:59.947Z,101593.09
2022-12-17T10:14:44.709Z,101594.47
2022-12-17T10:17:34.226Z,101597.50
2022-12-17T10:20:19.942Z,101598.84
2022-12-17T10:23:06.662Z,101604.72
2022-12-17T10:26:11.943Z,101600.22
2022-12-17T10:28:56.849Z,101603.84
2022-12-17T10:31:44.870Z,101597.72
2022-12-17T10:34:34.309Z,101601.34
2022-12-17T10:37:19.534Z,101600.81
2022-12-17T10:40:13.807Z,101597.81
2022-12-17T10:42:59.043Z,101595.75
2022-12-17T10:45:45.391Z,101601.53
2022-12-17T10:48:36.344Z,101606.63
2022-12-17T10:51:22.059Z,101600.28
2022-12-17T10:54:08.379Z,101591.09
2022-12-17T10:56:53.443Z,101595.34
2022-12-17T10:59:54.396Z,101596.78
2022-12-17T11:02:44.497Z,101602.72
2022-12-17T11:05:59.240Z,101601.47
2022-12-17T11:08:45.007Z,101600.25
2022-12-17T11:11:30.508Z,101602.53
2022-12-17T11:14:16.691Z,101606.47
2022-12-17T11:17:27.947Z,101608.75
2022-12-17T11:20:19.684Z,101614.38
2022-12-17T11:23:09.378Z,101615.38
2022-12-17T11:26:08.770Z,101616.72
2022-12-17T11:28:54.100Z,101613.31
2022-12-17T11:31:48.202Z,101610.16
2022-12-17T11:34:47.472Z,101610.47
2022-12-17T11:37:32.255Z,101608.56
2022-12-17T11:40:20.453Z,101608.47
2022-12-17T11:43:17.077Z,101610.06
2022-12-17T11:46:21.174Z,101606.16
2022-12-17T11:49:09.152Z,101613.75
2022-12-17T11:52:06.232Z,101607.31
2022-12-17T11:54:57.099Z,101607.72
2022-12-17T11:57:48.691Z,101603.50
2022-12-17T12:00:42.109Z,101603.06
2022-12-17T12:03:43.600Z,101604.28
2022-12-17T12:06:35.376Z,101603.66
2022-12-17T12:09:23.594Z,101611.06
2022-12-17T12:12:11.588Z,101609.75
2022-12-17T12:15:15.720Z,101604.78
2022-12-17T12:18:09.880Z,101598.13
2022-12-17T12:21:19.172Z,101598.63
2022-12-17T12:24:11.751Z,101601.16
2022-12-17T12:27:06.754Z,101610.16
2022-12-17T12:29:51.682Z,101599.50
2022-12-17T12:32:40.071Z,101604.16
2022-12-17T12:35:31.146Z,101609.72
2022-12-17T12:38:16.598Z,101605.69
2022-12-17T12:41:13.437Z,101607.84
2022-12-17T12:44:02.874Z,101607.53
2022-12-17T12:47:00.065Z,101600.84
2022-12-17T12:49:52.126Z,101607.34
2022-12-17T12:52:39.546Z,101613.69
2022-12-17T12:55:24.498Z,101615.84
2022-12-17T12:58:18.592Z,101620.53
2022-12-17T13:01:06.837Z,101611.19
2022-12-17T13:04:04.477Z,101615.81
2022-12-17T13:06:50.635Z,101612.47
2022-12-17T13:09:22.639Z,101625.81
2022-12-17T13:11:50.872Z,101619.81
2022-12-17T13:14:20.682Z,101621.28
2022-12-17T13:16:47.117Z,101614.78
2022-12-17T13:19:21.348Z,101619.09
2022-12-17T13:21:47.754Z,101619.75
2022-12-17T13:24:24.493Z,101628.47
2022-12-17T13:26:50.931Z,101625.44
2022-12-17T13:29:17.528Z,101623.41
2022-12-17T13:31:50.753Z,101623.09
2022-12-17T13:34:23.494Z,101625.91
2022-12-17T13:37:08.346Z,101635.06
2022-12-17T13:39:47.293Z,101630.69
2022-12-17T13:42:18.154Z,101640.34
2022-12-17T13:44:45.811Z,101633.94
2022-12-17T13:47:22.868Z,101639.28
2022-12-17T13:50:24.380Z,101641.25
2022-12-17T13:52:39.628Z,101641.19
2022-12-17T13:55:07.501Z,101644.19
2022-12-17T13:57:36.171Z,101642.50
2022-12-17T14:00:03.355Z,101646.13
2022-12-17T14:02:31.469Z,101649.72
2022-12-17T14:05:02.822Z,101649.72
2022-12-17T14:07:34.992Z,101648.00
2022-12-17T14:10:02.731Z,101652.66
2022-12-17T14:12:30.071Z,101650.63
2022-12-17T14:14:58.627Z,101657.66
2022-12-17T14:17:38.156Z,101665.03
2022-12-17T14:20:11.265Z,101658.84
2022-12-17T14:22:39.686Z,101665.38
2022-12-17T14:25:13.364Z,101667.44
2022-12-17T14:27:41.396Z,101670.81
2022-12-17T14:30:26.628Z,101676.19
2022-12-17T14:32:53.779Z,101668.53
2022-12-17T14:35:27.501Z,101674.31
2022-12-17T14:37:54.066Z,101674.03
2022-12-17T14:40:21.124Z,101669.06
2022-12-17T14:42:47.979Z,101676.44
2022-12-17T14:45:14.327Z,101678.53
2022-12-17T14:47:40.970Z,101679.56
2022-12-17T14:50:23.403Z,101677.22
2022-12-17T14:52:53.139Z,101673.94
2022-12-17T14:55:22.768Z,101680.31
2022-12-17T14:57:49.631Z,101682.66
2022-12-17T15:00:16.121Z,101674.97
2022-12-17T15:02:43.950Z,101681.69
2022-12-17T15:05:14.600Z,101677.16
2022-12-17T15:07:41.207Z,101685.66
2022-12-17T15:10:12.108Z,101688.94
2022-12-17T15:12:40.509Z,101682.59
2022-12-17T15:15:07.157Z,101682.25
2022-12-17T15:17:33.569Z,101683.88
2022-12-17T15:19:59.897Z,101685.47
2022-12-17T15:22:26.265Z,101681.75
2022-12-17T15:24:52.617Z,101690.34
2022-12-17T15:27:19.081Z,101688.28
2022-12-17T15:29:46.002Z,101697.56
2022-12-17T15:32:22.594Z,101702.31
2022-12-17T15:34:49.269Z,101706.06
2022-12-17T15:37:17.765Z,101709.66
2022-12-17T15:39:49.488Z,101711.56
2022-12-17T15:42:41.809Z,101712.50
2022-12-17T15:45:08.741Z,101717.38
2022-12-17T15:47:35.122Z,101705.97
2022-12-17T15:50:01.631Z,101715.03
2022-12-17T15:52:28.317Z,101706.16
2022-12-17T15:54:54.658Z,101709.00
2022-12-17T15:57:21.083Z,101711.59
2022-12-17T15:59:47.462Z,101707.88
2022-12-17T16:02:14.027Z,101710.53
2022-12-17T16:04:41.125Z,101713.94
2022-12-17T16:07:07.687Z,101707.56
2022-12-17T16:09:34.078Z,101708.13
2022-12-17T16:12:00.458Z,101710.44
2022-12-17T16:14:26.847Z,101716.47
2022-12-17T16:16:53.511Z,101723.06
2022-12-17T16:19:23.003Z,101728.13
2022-12-17T16:21:49.664Z,101726.06
2022-12-17T16:24:16.046Z,101731.94
2022-12-17T16:26:42.431Z,101727.38
2022-12-17T16:29:08.918Z,101730.59
2022-12-17T16:31:35.750Z,101742.78
2022-12-17T16:34:02.291Z,101736.38
2022-12-17T16:36:28.863Z,101734.41
2022-12-17T16:38:55.326Z,101734.00
2022-12-17T16:41:22.458Z,101738.06
2022-12-17T16:43:48.942Z,101729.69
2022-12-17T16:46:26.452Z,101736.56
